AirNav   Everest Fuels
 
 577 users online  

OR42 Agape Farm Airport
Prineville, Oregon, USA


FAA INFORMATION EFFECTIVE 07 NOVEMBER 2019

Location

FAA Identifier: OR42
Lat/Long: 44-03-37.4000N 120-47-55.6000W
44-03.623333N 120-47.926667W
44.0603889,-120.7987778
(estimated)
Elevation: 4003 ft. / 1220 m (estimated)
From city: 15 miles SSE of PRINEVILLE, OR
Time zone: UTC -8 (UTC -7 during Daylight Saving Time)
Zip code: 97753

Airport Operations

Airport use: Private use. Permission required prior to landing
Activation date: 08/2019
Control tower: no
ARTCC: SEATTLE CENTER
FSS: MC MINNVILLE FLIGHT SERVICE STATION
Attendance: 
Wind indicator: yes
Segmented circle: no

Airport Communications

WX AWOS-3PT at S39 (14 nm N): 118.325 (541-447-4060)
WX AWOS-3 at BDN (17 nm W): 134.425 (541-382-1477)
WX ASOS at RDM (19 nm NW): 119.025 (541-504-8743)

Nearby radio navigation aids

VOR radial/distance  VOR name  Freq  Var
DSDr100/24.6DESCHUTES VORTAC117.6018E

Airport Services

Runway Information

Runway 9/27

Dimensions: 4983 x 70 ft. / 1519 x 21 m
Surface: dirt
RUNWAY 9  RUNWAY 27
Latitude: 44-03.610000N44-03.638333N
Longitude: 120-48.495000W120-47.358333W
Elevation: 3877.0 ft.4003.0 ft.
Traffic pattern: leftleft

Airport Ownership and Management from official FAA records

Ownership: Privately-owned
Owner: RYAN AND ASHLEY GOERING
26894 SE CC DUNHAM RD
PRINEVILLE, OR 97754
Phone 541 420 3814
Manager: RYAN AND ASHLEY GOERING
26894 SE CC DUNHAM RD
PRINEVILLE, OR 97754
Phone 541 420 3814

Airport Operational Statistics

Aircraft based on the field: 2
Single engine airplanes: 2
    

Instrument Procedures

There are no published instrument procedures at OR42.

Some nearby airports with instrument procedures:

S39 - Prineville Airport (14 nm N)
KBDN - Bend Municipal Airport (17 nm W)
KRDM - Roberts Field Airport (19 nm NW)
S21 - Sunriver Airport (30 nm W)
S33 - Madras Municipal Airport (40 nm NW)
 
Loc | Ops | Rwys | IFR | FBO | Links
Com | Nav | Svcs | Stats | Notes
Aerial photo
No photo
 
Airport distance calculator
Flying to Agape Farm Airport? Find the distance to fly.

From to OR42

Sunrise and sunset
Times for 18-Nov-2019
 Local
(UTC-8)
 Zulu
(UTC)
Morning civil twilight06:3214:32
Sunrise07:0315:03
Sunset16:3300:33
Evening civil twilight17:0501:05

Current date and time
Zulu (UTC)  19-Nov-2019 06:02:51
Local (UTC-8)  18-Nov-2019 22:02:51
 
METAR
KS39 
14nm N 
190555Z AUTO 21014G19KT 10SM SCT050 BKN070 OVC075 13/05 A2970 RMK AO2
KBDN 
17nm W 
190555Z AUTO 19010KT 10SM SCT050 BKN060 BKN070 12/06 A2971 RMK AO2
KRDM 
19nm NW 
190556Z AUTO 21008KT 10SM BKN050 OVC060 13/06 A2970 RMK AO2 SLP047 T01330056 10161 20133 55008
TAF
KBDN 
17nm W 
190522Z 1906/2006 21009KT P6SM BKN040 OVC060 FM191000 23009KT P6SM SCT025 BKN035 OVC050 FM192000 32007KT P6SM VCSH SCT015 BKN025 OVC040 FM200300 34002KT P6SM BKN035
KRDM 
19nm NW 
190522Z 1906/2006 19013G18KT P6SM SCT040 BKN050 OVC060 FM191000 23009KT P6SM SCT030 BKN040 OVC050 FM192000 32007KT P6SM VCSH SCT020 BKN030 FM200300 32004KT P6SM OVC025
NOTAMs
Click for the latest NOTAMs
NOTAMs are issued by the DoD/FAA and will open in a separate window not controlled by AirNav.

 

 
 

Would you like to see your business listed on this page?

 If your business provides an interesting product or service to pilots, flight crews, aircraft, or users of the Agape Farm Airport, you should consider listing it here.  To start the listing process, click on the button below
 
Add a business
 

Other Pages about Agape Farm Airport

Update a link
 
Copyright © AirNav, LLC. All rights reserved. Privacy Policy  Contact